createdAt,value
2019-04-27T00:00:51.428Z,24.90
2019-04-27T00:03:18.364Z,36.13
2019-04-27T00:05:45.329Z,31.80
2019-04-27T00:08:13.932Z,26.47
2019-04-27T00:10:41.094Z,26.97
2019-04-27T00:13:08.029Z,23.07
2019-04-27T00:15:36.599Z,31.50
2019-04-27T00:18:03.701Z,32.20
2019-04-27T00:20:30.739Z,26.60
2019-04-27T00:22:57.733Z,32.30
2019-04-27T00:25:26.924Z,27.13
2019-04-27T00:27:53.484Z,23.33
2019-04-27T00:30:20.670Z,31.53
2019-04-27T00:32:47.573Z,31.67
2019-04-27T00:35:14.405Z,29.27
2019-04-27T00:37:42.674Z,28.77
2019-04-27T00:40:10.631Z,25.63
2019-04-27T00:42:37.539Z,31.13
2019-04-27T00:45:05.476Z,34.37
2019-04-27T00:47:32.764Z,25.33
2019-04-27T00:50:01.012Z,38.03
2019-04-27T00:52:28.017Z,28.77
2019-04-27T00:54:54.886Z,24.43
2019-04-27T00:57:22.877Z,34.63
2019-04-27T00:59:50.320Z,29.67
2019-04-27T01:02:17.203Z,37.87
2019-04-27T01:04:44.140Z,39.23
2019-04-27T01:07:11.431Z,28.67
2019-04-27T01:09:38.365Z,31.33
2019-04-27T01:12:05.271Z,28.17
2019-04-27T01:14:34.138Z,27.53
2019-04-27T01:17:00.776Z,28.50
2019-04-27T01:19:28.955Z,24.87
2019-04-27T01:21:55.956Z,29.50
2019-04-27T01:24:22.616Z,33.10
2019-04-27T01:26:49.919Z,24.57
2019-04-27T01:29:16.813Z,25.27
2019-04-27T01:31:43.551Z,25.27
2019-04-27T01:34:10.286Z,32.33
2019-04-27T01:36:37.093Z,47.47
2019-04-27T01:39:03.817Z,27.80
2019-04-27T01:41:30.536Z,23.37
2019-04-27T01:43:59.061Z,32.57
2019-04-27T01:46:25.875Z,27.97
2019-04-27T01:48:52.606Z,25.87
2019-04-27T01:51:21.013Z,19.30
2019-04-27T01:53:49.182Z,22.50
2019-04-27T01:56:15.949Z,19.53
2019-04-27T01:58:42.749Z,36.23
2019-04-27T02:01:09.682Z,28.63
2019-04-27T02:03:36.641Z,33.17
2019-04-27T02:06:03.432Z,26.83
2019-04-27T02:08:30.245Z,28.53
2019-04-27T02:10:57.093Z,38.97
2019-04-27T02:13:23.928Z,26.27
2019-04-27T02:15:50.781Z,30.77
2019-04-27T02:18:19.291Z,33.30
2019-04-27T02:20:46.205Z,27.60
2019-04-27T02:23:12.933Z,25.73
2019-04-27T02:25:39.740Z,24.50
2019-04-27T02:28:06.436Z,27.10
2019-04-27T02:30:33.177Z,17.87
2019-04-27T02:32:59.903Z,19.27
2019-04-27T02:35:26.699Z,17.90
2019-04-27T02:37:53.428Z,14.83
2019-04-27T02:40:20.548Z,24.43
2019-04-27T02:42:49.888Z,13.97
2019-04-27T02:45:15.725Z,16.63
2019-04-27T02:47:42.456Z,15.73
2019-04-27T02:50:10.741Z,12.23
2019-04-27T02:52:40.301Z,13.60
2019-04-27T02:55:05.927Z,14.23
2019-04-27T02:57:33.050Z,7.27
2019-04-27T03:00:00.186Z,15.67
2019-04-27T03:02:29.692Z,8.63
2019-04-27T03:04:55.745Z,5.40
2019-04-27T03:07:22.466Z,11.77
2019-04-27T03:09:50.987Z,10.43
2019-04-27T03:12:19.134Z,5.87
2019-04-27T03:14:45.952Z,6.70
2019-04-27T03:17:12.684Z,5.77
2019-04-27T03:19:40.111Z,11.13
2019-04-27T03:22:09.395Z,6.07
2019-04-27T03:24:35.296Z,8.87
2019-04-27T03:27:02.089Z,8.50
2019-04-27T03:29:30.588Z,5.90
2019-04-27T03:32:01.573Z,6.30
2019-04-27T03:34:25.735Z,5.87
2019-04-27T03:36:52.460Z,8.80
2019-04-27T03:39:19.971Z,7.70
2019-04-27T03:41:46.879Z,8.27
2019-04-27T03:44:13.635Z,8.93
2019-04-27T03:46:40.365Z,11.07
2019-04-27T03:49:09.647Z,8.63
2019-04-27T03:51:35.514Z,11.27
2019-04-27T03:54:02.238Z,10.70
2019-04-27T03:56:30.380Z,7.37
2019-04-27T03:58:59.654Z,14.43
2019-04-27T04:01:25.636Z,7.47
2019-04-27T04:03:52.428Z,9.77
2019-04-27T04:06:19.422Z,8.90
2019-04-27T04:08:46.277Z,6.27
2019-04-27T04:11:13.072Z,12.40
2019-04-27T04:13:39.920Z,8.47
2019-04-27T04:16:07.780Z,12.07
2019-04-27T04:18:35.045Z,7.57
2019-04-27T04:21:01.790Z,12.97
2019-04-27T04:23:30.087Z,21.57
2019-04-27T04:25:59.506Z,13.83
2019-04-27T04:28:25.283Z,11.33
2019-04-27T04:30:52.073Z,12.23
2019-04-27T04:33:20.542Z,12.57
2019-04-27T04:35:49.075Z,10.97
2019-04-27T04:38:15.633Z,9.67
2019-04-27T04:40:42.409Z,8.43
2019-04-27T04:43:10.733Z,9.40
2019-04-27T04:45:39.318Z,10.33
2019-04-27T04:48:06.248Z,12.07
2019-04-27T04:50:33.005Z,9.43
2019-04-27T04:53:00.027Z,12.20
2019-04-27T04:55:27.026Z,9.67
2019-04-27T04:57:53.862Z,8.70
2019-04-27T05:00:20.745Z,9.33
2019-04-27T05:02:49.160Z,14.27
2019-04-27T05:05:15.971Z,15.57
2019-04-27T05:07:42.698Z,14.63
2019-04-27T05:10:09.489Z,14.00
2019-04-27T05:12:36.221Z,17.17
2019-04-27T05:15:02.931Z,15.10
2019-04-27T05:17:29.752Z,15.80
2019-04-27T05:19:56.460Z,12.03
2019-04-27T05:22:23.455Z,14.23
2019-04-27T05:24:50.363Z,15.10
2019-04-27T05:27:18.762Z,16.27
2019-04-27T05:29:45.595Z,16.93
2019-04-27T05:32:12.394Z,14.33
2019-04-27T05:34:39.518Z,16.27
2019-04-27T05:37:06.236Z,13.27
2019-04-27T05:39:33.031Z,15.77
2019-04-27T05:41:59.961Z,15.23
2019-04-27T05:44:28.544Z,20.20
2019-04-27T05:46:55.160Z,19.37
2019-04-27T05:49:21.900Z,22.73
2019-04-27T05:51:50.116Z,22.83
2019-04-27T05:54:16.928Z,17.67
2019-04-27T05:56:43.659Z,18.23
2019-04-27T05:59:10.401Z,24.97
2019-04-27T06:01:38.915Z,23.70
2019-04-27T06:04:05.577Z,19.03
2019-04-27T06:06:32.310Z,18.30
2019-04-27T06:08:59.514Z,24.83
2019-04-27T06:11:26.227Z,21.87
2019-04-27T06:13:52.970Z,19.67
2019-04-27T06:16:19.922Z,21.93
2019-04-27T06:18:46.655Z,19.17
2019-04-27T06:21:13.394Z,17.13
2019-04-27T06:23:40.182Z,17.60
2019-04-27T06:26:11.421Z,17.37
2019-04-27T06:28:35.292Z,20.17
2019-04-27T06:31:02.102Z,16.83
2019-04-27T06:33:34.075Z,15.23
2019-04-27T06:35:57.215Z,18.60
2019-04-27T06:38:24.064Z,17.60
2019-04-27T06:40:50.829Z,15.03
2019-04-27T06:43:18.874Z,15.63
2019-04-27T06:45:45.755Z,19.67
2019-04-27T06:48:12.494Z,14.30
2019-04-27T06:50:39.223Z,13.33
2019-04-27T06:53:06.018Z,11.20
2019-04-27T06:55:32.766Z,13.83
2019-04-27T06:57:59.506Z,27.73
2019-04-27T07:00:26.300Z,35.17
2019-04-27T07:02:55.206Z,25.47
2019-04-27T07:05:21.411Z,23.83
2019-04-27T07:07:48.989Z,25.80
2019-04-27T07:10:15.755Z,31.50
2019-04-27T07:12:42.479Z,26.07
2019-04-27T07:15:09.270Z,32.50
2019-04-27T07:17:36.016Z,27.20
2019-04-27T07:20:02.735Z,22.60
2019-04-27T07:22:29.995Z,20.97
2019-04-27T07:24:56.759Z,22.67
2019-04-27T07:27:23.480Z,20.13
2019-04-27T07:29:50.278Z,21.07
2019-04-27T07:32:17.009Z,20.30
2019-04-27T07:34:43.725Z,20.23
2019-04-27T07:37:11.142Z,23.50
2019-04-27T07:39:39.119Z,23.47
2019-04-27T07:42:05.874Z,17.00
2019-04-27T07:44:32.671Z,27.00
2019-04-27T07:46:59.497Z,18.23
2019-04-27T07:49:26.239Z,21.83
2019-04-27T07:51:53.056Z,21.27
2019-04-27T07:54:19.780Z,17.23
2019-04-27T07:56:46.509Z,23.33
2019-04-27T07:59:13.516Z,21.33
2019-04-27T08:01:40.254Z,23.67
2019-04-27T08:04:08.848Z,18.70
2019-04-27T08:06:35.439Z,30.57
2019-04-27T08:09:02.172Z,26.17
2019-04-27T08:11:29.220Z,21.60
2019-04-27T08:13:56.183Z,19.73
2019-04-27T08:16:22.900Z,15.97
2019-04-27T08:18:51.619Z,18.33
2019-04-27T08:21:18.877Z,19.53
2019-04-27T08:23:45.714Z,17.87
2019-04-27T08:26:12.453Z,15.97
2019-04-27T08:28:39.283Z,22.23
2019-04-27T08:31:06.011Z,21.40
2019-04-27T08:33:33.030Z,15.17
2019-04-27T08:36:00.034Z,16.00
2019-04-27T08:38:28.495Z,18.60
2019-04-27T08:40:55.481Z,17.83
2019-04-27T08:43:22.469Z,19.67
2019-04-27T08:45:49.293Z,19.67
2019-04-27T08:48:16.490Z,18.50
2019-04-27T08:50:43.348Z,26.53
2019-04-27T08:53:10.085Z,19.73
2019-04-27T08:55:36.920Z,21.30
2019-04-27T08:58:03.802Z,14.13
2019-04-27T09:00:30.641Z,24.43
2019-04-27T09:02:59.368Z,19.50
2019-04-27T09:05:26.070Z,18.17
2019-04-27T09:07:52.803Z,12.57
2019-04-27T09:10:19.510Z,15.43
2019-04-27T09:12:53.083Z,24.07
2019-04-27T09:15:19.236Z,14.67
2019-04-27T09:17:46.028Z,18.93
2019-04-27T09:20:12.822Z,13.00
2019-04-27T09:22:39.552Z,20.70
2019-04-27T09:25:06.275Z,27.47
2019-04-27T09:27:33.096Z,25.73
2019-04-27T09:29:59.801Z,18.87
2019-04-27T09:32:26.531Z,23.07
2019-04-27T09:34:53.388Z,17.40
2019-04-27T09:37:20.133Z,16.13
2019-04-27T09:39:46.874Z,14.40
2019-04-27T09:42:13.758Z,17.50
2019-04-27T09:44:40.441Z,22.47
2019-04-27T09:47:07.238Z,31.70
2019-04-27T09:49:34.012Z,24.83
2019-04-27T09:52:00.741Z,28.57
2019-04-27T09:54:27.480Z,18.00
2019-04-27T09:56:56.001Z,24.67
2019-04-27T09:59:22.812Z,20.53
2019-04-27T10:01:49.552Z,24.17
2019-04-27T10:04:17.486Z,19.17
2019-04-27T10:06:46.180Z,32.33
2019-04-27T10:09:12.755Z,21.53
2019-04-27T10:11:39.687Z,21.00
2019-04-27T10:14:06.434Z,19.67
2019-04-27T10:16:33.207Z,28.60
2019-04-27T10:19:00.044Z,21.63
2019-04-27T10:21:26.986Z,19.40
2019-04-27T10:23:53.719Z,25.10
2019-04-27T10:26:20.559Z,19.30
2019-04-27T10:28:47.240Z,20.70
2019-04-27T10:31:14.101Z,20.60
2019-04-27T10:33:40.856Z,24.00
2019-04-27T10:36:07.850Z,20.53
2019-04-27T10:38:35.999Z,28.27
2019-04-27T10:41:02.870Z,34.13
2019-04-27T10:43:29.579Z,21.37
2019-04-27T10:45:56.621Z,18.10
2019-04-27T10:48:23.484Z,21.43
2019-04-27T10:50:50.165Z,23.27
2019-04-27T10:53:17.045Z,26.73
2019-04-27T10:55:44.032Z,17.73
2019-04-27T10:58:10.766Z,20.03
2019-04-27T11:00:37.510Z,22.03
2019-04-27T11:03:04.464Z,14.67
2019-04-27T11:05:31.360Z,17.13
2019-04-27T11:07:58.118Z,17.87
2019-04-27T11:10:26.036Z,23.83
2019-04-27T11:12:52.841Z,17.83
2019-04-27T11:15:19.567Z,17.17
2019-04-27T11:17:47.586Z,20.87
2019-04-27T11:20:14.374Z,13.37
2019-04-27T11:22:41.090Z,14.80
2019-04-27T11:25:07.898Z,20.53
2019-04-27T11:27:34.612Z,15.47
2019-04-27T11:30:01.339Z,24.47
2019-04-27T11:32:28.113Z,17.00
2019-04-27T11:34:55.849Z,17.93
2019-04-27T11:37:22.605Z,14.33
2019-04-27T11:39:49.400Z,10.27
2019-04-27T11:42:16.124Z,10.30
2019-04-27T11:44:42.855Z,15.07
2019-04-27T11:47:09.631Z,13.43
2019-04-27T11:49:36.352Z,15.47
2019-04-27T11:52:03.081Z,10.13
2019-04-27T11:54:29.872Z,8.50
2019-04-27T11:56:56.600Z,10.77
2019-04-27T11:59:23.331Z,10.53
2019-04-27T12:01:50.120Z,7.27
2019-04-27T12:04:16.842Z,7.40
2019-04-27T12:06:43.578Z,10.27
2019-04-27T12:09:10.367Z,12.73
2019-04-27T12:11:37.122Z,14.53
2019-04-27T12:14:03.845Z,10.97
2019-04-27T12:16:30.626Z,10.77
2019-04-27T12:18:57.415Z,11.23
2019-04-27T12:21:24.259Z,11.00
2019-04-27T12:23:51.303Z,24.30
2019-04-27T12:26:18.047Z,14.77
2019-04-27T12:28:45.935Z,18.27
2019-04-27T12:31:12.834Z,14.50
2019-04-27T12:33:39.555Z,18.23
2019-04-27T12:36:06.757Z,14.27
2019-04-27T12:38:33.694Z,17.67
2019-04-27T12:41:00.415Z,20.97
2019-04-27T12:43:27.156Z,18.13
2019-04-27T12:45:55.800Z,12.73
2019-04-27T12:48:22.327Z,17.73
2019-04-27T12:50:49.040Z,14.93
2019-04-27T12:53:16.163Z,15.13
2019-04-27T12:55:43.005Z,16.50
2019-04-27T12:58:09.810Z,14.70
2019-04-27T13:00:36.754Z,14.73
2019-04-27T13:03:03.526Z,13.83
2019-04-27T13:05:30.309Z,17.43
2019-04-27T13:07:57.099Z,15.57
2019-04-27T13:10:23.821Z,15.10
2019-04-27T13:12:51.025Z,12.53
2019-04-27T13:15:18.219Z,13.57
2019-04-27T13:17:45.028Z,12.23
2019-04-27T13:20:11.763Z,12.70
2019-04-27T13:22:39.023Z,12.93
2019-04-27T13:25:05.819Z,15.33
2019-04-27T13:27:32.485Z,16.27
2019-04-27T13:29:59.284Z,13.80
2019-04-27T13:32:26.593Z,12.07
2019-04-27T13:34:53.465Z,13.47
2019-04-27T13:37:20.253Z,12.13
2019-04-27T13:39:46.970Z,15.03
2019-04-27T13:42:15.568Z,14.40
2019-04-27T13:44:42.464Z,17.20
2019-04-27T13:47:09.203Z,15.20
2019-04-27T13:49:36.344Z,15.40
2019-04-27T13:52:03.188Z,15.37
2019-04-27T13:54:29.980Z,16.03
2019-04-27T13:56:56.756Z,15.77
2019-04-27T13:59:23.556Z,17.40
2019-04-27T14:01:50.272Z,21.90
2019-04-27T14:04:17.090Z,14.30
2019-04-27T14:06:43.931Z,16.80
2019-04-27T14:09:12.638Z,14.93
2019-04-27T14:11:39.448Z,22.87
2019-04-27T14:14:06.352Z,20.83
2019-04-27T14:16:33.379Z,18.57
2019-04-27T14:19:00.109Z,15.93
2019-04-27T14:21:26.996Z,17.77
2019-04-27T14:23:53.726Z,14.97
2019-04-27T14:26:20.464Z,13.67
2019-04-27T14:28:48.114Z,14.60
2019-04-27T14:31:15.666Z,14.20
2019-04-27T14:33:42.434Z,15.77
2019-04-27T14:36:09.209Z,19.63
2019-04-27T14:38:35.961Z,28.70
2019-04-27T14:41:02.699Z,24.33
2019-04-27T14:43:29.513Z,24.37
2019-04-27T14:45:58.203Z,19.73
2019-04-27T14:48:24.631Z,23.93
2019-04-27T14:50:51.427Z,28.43
2019-04-27T14:53:18.162Z,30.27
2019-04-27T14:55:44.919Z,24.60
2019-04-27T14:58:11.748Z,34.13
2019-04-27T15:00:38.592Z,33.50
2019-04-27T15:03:05.334Z,26.90
2019-04-27T15:05:32.125Z,27.47
2019-04-27T15:08:01.846Z,36.00
2019-04-27T15:10:32.989Z,26.87
2019-04-27T15:12:55.725Z,28.53
2019-04-27T15:15:22.450Z,30.87
2019-04-27T15:17:49.490Z,29.13
2019-04-27T15:20:16.336Z,32.13
2019-04-27T15:22:43.076Z,39.53
2019-04-27T15:25:13.702Z,29.73
2019-04-27T15:27:40.461Z,28.97
2019-04-27T15:30:09.158Z,32.37
2019-04-27T15:32:39.393Z,30.93
2019-04-27T15:35:05.327Z,36.43
2019-04-27T15:37:34.159Z,32.70
2019-04-27T15:40:08.642Z,32.03
2019-04-27T15:42:28.565Z,25.57
2019-04-27T15:44:55.288Z,23.43
2019-04-27T15:47:22.020Z,23.00
2019-04-27T15:49:51.083Z,19.67
2019-04-27T15:52:17.933Z,27.93
2019-04-27T15:54:44.723Z,29.77
2019-04-27T15:57:13.726Z,25.63
2019-04-27T15:59:41.120Z,38.10
2019-04-27T16:02:12.141Z,26.97
2019-04-27T16:04:38.139Z,22.67
2019-04-27T16:07:04.722Z,24.80
2019-04-27T16:09:31.453Z,30.17
2019-04-27T16:12:09.538Z,22.40
2019-04-27T16:14:26.615Z,31.57
2019-04-27T16:16:53.356Z,24.07
2019-04-27T16:19:20.165Z,20.73
2019-04-27T16:21:50.171Z,23.87
2019-04-27T16:24:16.913Z,30.10
2019-04-27T16:26:46.337Z,29.73
2019-04-27T16:29:12.212Z,26.07
2019-04-27T16:31:38.953Z,35.93
2019-04-27T16:34:05.809Z,31.97
2019-04-27T16:36:32.648Z,26.80
2019-04-27T16:38:59.490Z,32.97
2019-04-27T16:41:28.061Z,31.20
2019-04-27T16:43:54.913Z,20.57
2019-04-27T16:46:21.754Z,26.10
2019-04-27T16:48:48.535Z,21.63
2019-04-27T16:51:15.255Z,27.27
2019-04-27T16:53:41.984Z,25.90
2019-04-27T16:56:15.015Z,19.63
2019-04-27T16:58:39.167Z,23.67
2019-04-27T17:01:08.365Z,22.10
2019-04-27T17:03:35.744Z,25.97
2019-04-27T17:06:04.058Z,18.03
2019-04-27T17:08:30.782Z,23.50
2019-04-27T17:11:07.859Z,24.10
2019-04-27T17:13:25.938Z,21.83
2019-04-27T17:15:53.592Z,22.37
2019-04-27T17:18:24.475Z,17.87
2019-04-27T17:20:52.638Z,17.87
2019-04-27T17:23:18.210Z,23.90
2019-04-27T17:25:45.050Z,20.57
2019-04-27T17:28:13.556Z,28.30
2019-04-27T17:30:41.850Z,21.10
2019-04-27T17:33:11.708Z,29.43
2019-04-27T17:35:41.291Z,28.13
2019-04-27T17:38:10.541Z,20.17
2019-04-27T17:40:34.443Z,24.73
2019-04-27T17:43:06.797Z,20.30
2019-04-27T17:45:36.064Z,22.97
2019-04-27T17:48:06.475Z,23.70
2019-04-27T17:50:28.007Z,26.70
2019-04-27T17:52:57.355Z,26.63
2019-04-27T17:55:25.421Z,27.80
2019-04-27T17:57:52.378Z,22.50
2019-04-27T18:00:19.143Z,32.67
2019-04-27T18:02:45.987Z,26.37
2019-04-27T18:05:13.726Z,31.17
2019-04-27T18:07:44.166Z,32.00
2019-04-27T18:10:13.449Z,30.87
2019-04-27T18:12:38.132Z,30.73
2019-04-27T18:15:04.867Z,31.13
2019-04-27T18:17:31.706Z,25.30
2019-04-27T18:19:59.639Z,29.50
2019-04-27T18:22:28.118Z,25.40
2019-04-27T18:24:55.621Z,25.20
2019-04-27T18:27:23.803Z,22.47
2019-04-27T18:29:50.709Z,22.00
2019-04-27T18:32:17.535Z,31.00
2019-04-27T18:34:45.214Z,26.23
2019-04-27T18:37:14.408Z,36.80
2019-04-27T18:39:45.260Z,30.60
2019-04-27T18:42:09.582Z,19.97
2019-04-27T18:44:38.061Z,28.17
2019-04-27T18:47:05.049Z,26.77
2019-04-27T18:49:31.774Z,30.60
2019-04-27T18:52:04.190Z,27.03
2019-04-27T18:54:28.400Z,30.93
2019-04-27T18:57:02.026Z,25.60
2019-04-27T18:59:23.682Z,23.20
2019-04-27T19:01:51.075Z,27.33
2019-04-27T19:04:19.000Z,25.37
2019-04-27T19:06:45.709Z,31.20
2019-04-27T19:09:12.991Z,30.73
2019-04-27T19:11:52.955Z,36.37
2019-04-27T19:14:08.422Z,32.03
2019-04-27T19:16:35.272Z,26.40
2019-04-27T19:19:02.003Z,22.77
2019-04-27T19:21:28.983Z,21.30
2019-04-27T19:23:55.748Z,21.37
2019-04-27T19:26:22.479Z,18.10
2019-04-27T19:28:49.225Z,20.20
2019-04-27T19:31:16.029Z,23.83
2019-04-27T19:33:42.762Z,21.03
2019-04-27T19:36:09.496Z,23.83
2019-04-27T19:38:36.298Z,23.03
2019-04-27T19:41:03.037Z,22.00
2019-04-27T19:43:29.787Z,22.97
2019-04-27T19:45:58.288Z,26.77
2019-04-27T19:48:25.098Z,27.23
2019-04-27T19:50:51.827Z,24.70
2019-04-27T19:53:19.441Z,21.83
2019-04-27T19:55:46.159Z,27.43
2019-04-27T19:58:12.891Z,25.27
2019-04-27T20:00:39.853Z,32.07
2019-04-27T20:03:06.617Z,31.03
2019-04-27T20:05:34.792Z,21.87
2019-04-27T20:08:01.605Z,21.50
2019-04-27T20:10:28.341Z,25.10
2019-04-27T20:12:55.079Z,26.77
2019-04-27T20:15:21.874Z,29.00
2019-04-27T20:17:48.607Z,33.17
2019-04-27T20:20:15.345Z,31.47
2019-04-27T20:22:42.146Z,38.43
2019-04-27T20:25:08.878Z,31.30
2019-04-27T20:27:46.164Z,31.63
2019-04-27T20:30:04.011Z,36.00
2019-04-27T20:32:31.438Z,36.53
2019-04-27T20:34:58.301Z,28.53
2019-04-27T20:37:25.098Z,29.03
2019-04-27T20:39:51.824Z,39.00
2019-04-27T20:42:18.571Z,35.10
2019-04-27T20:44:45.759Z,35.53
2019-04-27T20:47:12.489Z,34.97
2019-04-27T20:49:39.273Z,39.63
2019-04-27T20:52:06.039Z,35.33
2019-04-27T20:54:32.922Z,37.97
2019-04-27T20:57:01.423Z,32.50
2019-04-27T20:59:28.073Z,32.40
2019-04-27T21:01:54.805Z,26.97
2019-04-27T21:04:21.530Z,26.07
2019-04-27T21:06:48.320Z,30.00
2019-04-27T21:09:15.071Z,28.50
2019-04-27T21:11:41.836Z,33.10
2019-04-27T21:14:08.624Z,30.40
2019-04-27T21:16:35.349Z,35.00
2019-04-27T21:19:04.950Z,34.50
2019-04-27T21:21:30.522Z,30.37
2019-04-27T21:23:57.247Z,41.77
2019-04-27T21:26:23.967Z,28.17
2019-04-27T21:28:51.330Z,31.07
2019-04-27T21:31:18.084Z,35.63
2019-04-27T21:33:44.795Z,36.60
2019-04-27T21:36:11.844Z,33.13
2019-04-27T21:38:38.622Z,44.37
2019-04-27T21:41:05.363Z,34.43
2019-04-27T21:43:32.749Z,37.93
2019-04-27T21:45:59.580Z,33.80
2019-04-27T21:48:26.318Z,31.00
2019-04-27T21:50:53.097Z,36.07
2019-04-27T21:53:21.170Z,34.73
2019-04-27T21:55:47.955Z,32.50
2019-04-27T21:58:28.154Z,33.67
2019-04-27T22:00:43.354Z,32.00
2019-04-27T22:03:11.412Z,33.17
2019-04-27T22:05:38.281Z,34.00
2019-04-27T22:08:05.012Z,33.17
2019-04-27T22:10:31.731Z,30.17
2019-04-27T22:12:58.516Z,25.67
2019-04-27T22:15:25.255Z,27.53
2019-04-27T22:17:51.988Z,28.73
2019-04-27T22:20:20.707Z,28.73
2019-04-27T22:22:47.162Z,33.50
2019-04-27T22:25:14.158Z,36.40
2019-04-27T22:27:41.444Z,33.90
2019-04-27T22:30:08.200Z,34.90
2019-04-27T22:32:34.932Z,32.13
2019-04-27T22:35:01.723Z,29.83
2019-04-27T22:37:28.450Z,33.50
2019-04-27T22:39:55.174Z,34.87
2019-04-27T22:42:23.226Z,35.17
2019-04-27T22:44:51.025Z,42.97
2019-04-27T22:47:17.807Z,43.97
2019-04-27T22:49:44.474Z,40.20
2019-04-27T22:52:11.754Z,40.80
2019-04-27T22:54:38.448Z,43.47
2019-04-27T22:57:05.570Z,42.00
2019-04-27T22:59:32.193Z,42.43
2019-04-27T23:01:58.904Z,37.07
2019-04-27T23:04:25.726Z,41.03
2019-04-27T23:06:52.448Z,37.80
2019-04-27T23:09:19.081Z,47.00
2019-04-27T23:11:45.795Z,41.23
2019-04-27T23:14:12.417Z,34.87
2019-04-27T23:16:39.013Z,40.43
2019-04-27T23:19:05.705Z,43.30
2019-04-27T23:21:32.355Z,43.20
2019-04-27T23:23:58.978Z,42.63
2019-04-27T23:26:25.632Z,44.50
2019-04-27T23:28:52.223Z,45.40
2019-04-27T23:31:20.883Z,46.67
2019-04-27T23:33:47.227Z,54.20
2019-04-27T23:36:13.868Z,47.53
2019-04-27T23:38:40.920Z,47.57
2019-04-27T23:41:07.679Z,46.57
2019-04-27T23:43:34.325Z,51.87
2019-04-27T23:46:01.623Z,48.63
2019-04-27T23:48:28.598Z,48.60
2019-04-27T23:50:55.278Z,48.93
2019-04-27T23:53:22.057Z,55.77
2019-04-27T23:55:48.838Z,46.07
2019-04-27T23:58:15.453Z,48.67
